Latest Coastal Weather Observations for Port Kembla Harbour

IDN60701

Issued at 11:51 am EDT Tuesday 28 February 2017 (issued every 10 minutes, with the page automatically refreshed every 10 minutes)

About coastal observations | Map of coastal stations | Coastal observations for NSW | Marine services | Other Formats
Station Details ID: 068253 Name: PORT KEMBLA NTC AWS Lat: -34.47 Lon: 150.91 Height: 0.0 m
Data from the previous 72 hours. | See also: Recent months for locations in New South Wales
Date/Time
EDT
Temp
°C
Wind Pressure Rain since
9am
mm
Weather Cloud Vis
km
Sea
Height
m
Swell
Dir  Spd
kts
Gust
kts
hPa Trend Height
m
Period
s
Dir
28/11:30am 23.7 E 8 13 1023.1 - - - - - - - - -
28/11:00am 23.6 E 9 13 1023.1 - - - - - - - - -
28/10:30am 21.9 ENE 9 14 1023.1 - - - - - - - - -
28/10:00am 23.4 E 8 13 1023.0 - - - - - - - - -
28/09:30am 22.8 ENE 9 14 1022.9 - - - - - - - - -
28/09:00am 22.4 SSE 3 11 1022.9 - - - - - - - - -
28/08:30am 20.7 NE 3 7 1022.9 - - - - - - - - -
28/08:00am 20.0 WSW 9 13 1022.5 - - - - - - - - -
28/07:30am 20.3 WSW 6 9 1022.5 - - - - - - - - -
28/07:00am 20.7 SSW 5 9 1022.2 - - - - - - - - -
28/06:30am 20.2 SW 4 7 1021.8 - - - - - - - - -
28/06:00am 20.1 WNW 2 6 1021.7 - - - - - - - - -
28/05:30am 19.8 SW 7 10 1021.5 - - - - - - - - -
28/05:00am 20.2 SW 8 11 1021.2 - - - - - - - - -
28/04:30am 20.2 SW 7 11 1021.2 - - - - - - - - -
28/04:00am 19.9 SW 6 9 1021.3 - - - - - - - - -
28/03:30am 20.0 SW 6 8 1021.5 - - - - - - - - -
28/03:00am 20.0 SW 6 8 1021.8 - - - - - - - - -
28/02:30am 20.0 SW 5 7 1022.2 - - - - - - - - -
28/02:00am 20.2 SW 6 9 1022.5 - - - - - - - - -
28/01:30am 20.2 SW 6 8 1022.8 - - - - - - - - -
28/01:00am 20.1 WSW 6 7 1023.1 - - - - - - - - -
28/12:30am 20.1 WSW 5 6 1023.1 - - - - - - - - -
28/12:00am 20.0 SW 4 7 1023.3 - - - - - - - - -
 
Date/Time
EDT
Temp
°C
Wind Pressure Rain since
9am
mm
Weather Cloud Vis
km
Sea
Height
m
Swell
Dir  Spd
kts
Gust
kts
hPa Trend Height
m
Period
s
Dir
27/11:30pm 20.3 SW 5 8 1023.4 - - - - - - - - -
27/11:00pm 20.3 SW 6 8 1023.4 - - - - - - - - -
27/10:30pm 20.3 WSW 7 10 1023.5 - - - - - - - - -
27/10:00pm 20.2 WSW 6 9 1023.5 - - - - - - - - -
27/09:30pm 20.0 SW 5 8 1023.5 - - - - - - - - -
27/09:00pm 18.9 NE 11 26 1023.5 - - - - - - - - -
27/08:56pm 19.2 NE 9 26 1023.4 - - - - - - - - -
27/08:30pm 21.2 SW 7 12 1022.9 - - - - - - - - -
27/08:00pm 21.5 WSW 5 7 1022.9 - - - - - - - - -
27/07:30pm 21.1 S 4 8 1022.9 - - - - - - - - -
27/07:00pm 22.4 SSW 4 8 1022.7 - - - - - - - - -
27/06:30pm 21.3 SE 6 9 1022.7 - - - - - - - - -
27/06:00pm 22.1 SE 10 15 1022.6 - - - - - - - - -
27/05:30pm 22.5 SSE 9 17 1022.6 - - - - - - - - -
27/05:00pm 23.6 SSW 7 13 1022.7 - - - - - - - - -
27/04:30pm 24.0 S 7 15 1022.7 - - - - - - - - -
27/04:00pm 24.2 S 6 11 1022.6 - - - - - - - - -
27/03:30pm 24.2 SSE 8 13 1022.8 - - - - - - - - -
27/03:00pm 24.4 SSE 6 12 1023.2 - - - - - - - - -
27/02:30pm 24.2 SSE 7 12 1023.3 - - - - - - - - -
27/02:00pm 24.1 SSE 7 13 1023.6 - - - - - - - - -
27/01:30pm 23.1 S 8 15 1023.7 - - - - - - - - -
27/01:00pm 23.5 S 7 14 1023.7 - - - - - - - - -
27/12:30pm 22.7 SSW 6 11 1024.0 - - - - - - - - -
27/12:00pm 22.3 S 5 10 1024.3 - - - - - - - - -
27/11:30am 21.9 S 5 11 1024.5 - - - - - - - - -
27/11:00am 20.8 S 4 9 1024.6 - - - - - - - - -
27/10:30am 22.5 ESE 6 10 1024.3 - - - - - - - - -
27/10:00am 22.6 E 7 11 1024.5 - - - - - - - - -
27/09:30am 22.5 ESE 7 11 1024.3 - - - - - - - - -
27/09:00am 22.5 ESE 6 11 1024.0 - - - - - - - - -
27/08:30am 22.5 ESE 8 13 1023.8 - - - - - - - - -
27/08:00am 22.3 ESE 9 13 1023.5 - - - - - - - - -
27/07:30am 22.3 ESE 10 14 1023.2 - - - - - - - - -
27/07:00am 22.2 ESE 10 15 1022.8 - - - - - - - - -
27/06:30am 22.1 ESE 10 16 1022.7 - - - - - - - - -
27/06:00am 22.1 E 11 19 1022.4 - - - - - - - - -
27/05:30am 22.0 ESE 10 18 1022.0 - - - - - - - - -
27/05:00am 22.1 E 8 13 1021.9 - - - - - - - - -
27/04:30am 22.2 ESE 5 13 1021.9 - - - - - - - - -
27/04:00am 18.6 W 4 7 1022.1 - - - - - - - - -
27/03:30am 18.5 SW 6 9 1022.1 - - - - - - - - -
27/03:00am 18.2 WSW 6 10 1022.4 - - - - - - - - -
27/02:30am 17.9 W 8 11 1022.4 - - - - - - - - -
27/02:00am 18.2 WSW 10 12 1022.6 - - - - - - - - -
27/01:30am 18.1 SW 7 10 1022.9 - - - - - - - - -
27/01:00am 18.6 SW 7 10 1023.0 - - - - - - - - -
27/12:30am 18.7 SW 6 9 1023.1 - - - - - - - - -
27/12:00am 18.6 SW 6 8 1023.1 - - - - - - - - -
 
Date/Time
EDT
Temp
°C
Wind Pressure Rain since
9am
mm
Weather Cloud Vis
km
Sea
Height
m
Swell
Dir  Spd
kts
Gust
kts
hPa Trend Height
m
Period
s
Dir
26/11:30pm 18.7 SW 7 11 1023.2 - - - - - - - - -
26/11:00pm 18.5 SW 9 14 1023.4 - - - - - - - - -
26/10:30pm 19.9 SW 9 15 1023.5 - - - - - - - - -
26/10:00pm 20.0 SSW 6 11 1023.4 - - - - - - - - -
26/09:30pm 20.4 SW 10 14 1023.2 - - - - - - - - -
26/09:00pm 20.4 SW 9 12 1022.9 - - - - - - - - -
26/08:30pm 20.7 SW 8 13 1022.6 - - - - - - - - -
26/08:00pm 20.9 SW 9 14 1022.4 - - - - - - - - -
26/07:30pm 21.0 SW 11 16 1022.2 - - - - - - - - -
26/07:00pm 21.5 SSW 10 15 1022.2 - - - - - - - - -
26/06:30pm 22.0 SSW 9 16 1021.9 - - - - - - - - -
26/06:00pm 22.5 SSW 8 17 1021.8 - - - - - - - - -
26/05:30pm 23.0 SSW 8 14 1021.7 - - - - - - - - -
26/05:00pm 23.0 SSW 8 15 1021.7 - - - - - - - - -
26/04:30pm 23.4 S 7 15 1021.7 - - - - - - - - -
26/04:00pm 23.3 SSW 7 15 1021.8 - - - - - - - - -
26/03:30pm 22.9 S 7 16 1022.0 - - - - - - - - -
26/03:00pm 22.8 S 7 13 1022.1 - - - - - - - - -
26/02:30pm 22.7 S 7 13 1022.4 - - - - - - - - -
26/02:00pm 22.8 S 7 14 1022.5 - - - - - - - - -
26/01:30pm 22.3 SSW 7 13 1022.8 - - - - - - - - -
26/01:00pm 21.7 SSW 8 13 1022.9 - - - - - - - - -
26/12:30pm 20.6 SW 9 13 1023.0 - - - - - - - - -
26/12:00pm 20.3 SSW 7 14 1023.3 - - - - - - - - -
26/11:30am 20.9 SSW 7 14 1023.3 - - - - - - - - -
26/11:00am 20.9 SSW 6 13 1023.2 - - - - - - - - -
26/10:30am 21.0 SSW 8 14 1023.2 - - - - - - - - -
26/10:00am 20.9 SSW 7 13 1023.0 - - - - - - - - -
26/09:30am 20.6 SSW 8 15 1022.6 - - - - - - - - -
26/09:00am 19.8 SW 8 12 1022.2 - - - - - - - - -
26/08:30am 19.6 SW 7 11 1022.0 - - - - - - - - -
26/08:00am 19.4 SW 7 10 1021.9 - - - - - - - - -
26/07:30am 21.2 S 6 11 1021.5 - - - - - - - - -
26/07:00am 21.3 SSE 6 14 1021.3 - - - - - - - - -
26/06:30am 21.2 SSE 6 13 1021.1 - - - - - - - - -
26/06:00am 21.3 SSE 7 12 1020.7 - - - - - - - - -
26/05:30am 21.4 SE 8 14 1020.5 - - - - - - - - -
26/05:00am 21.6 SE 10 16 1020.3 - - - - - - - - -
26/04:30am 21.3 SSE 8 14 1020.1 - - - - - - - - -
26/04:00am 21.5 SSE 8 16 1019.9 - - - - - - - - -
26/03:30am 18.0 WNW 5 8 1020.2 - - - - - - - - -
26/03:00am 18.1 WSW 10 15 1020.3 - - - - - - - - -
26/02:30am 21.7 SSE 7 13 1020.3 - - - - - - - - -
26/02:00am 22.2 SE 16 22 1020.2 - - - - - - - - -
26/01:30am 22.0 SE 17 21 1020.0 - - - - - - - - -
26/01:00am 22.2 SE 18 25 1020.1 - - - - - - - - -
26/12:30am 21.8 SE 14 24 1020.1 - - - - - - - - -
26/12:00am 20.2 ESE 9 16 1020.1 - - - - - - - - -
 
Date/Time
EDT
Temp
°C
Wind Pressure Rain since
9am
mm
Weather Cloud Vis
km
Sea
Height
m
Swell
Dir  Spd
kts
Gust
kts
hPa Trend Height
m
Period
s
Dir
25/11:30pm 19.8 SSE 6 10 1020.6 - - - - - - - - -
25/11:00pm 20.1 SW 5 10 1020.7 - - - - - - - - -

Other Formats:

Comma delimited format used in spreadsheet applications
http://www.bom.gov.au/fwo/IDN60701/IDN60701.95745.axf

JavaScript Object Notation format (JSON) in row-major order
http://www.bom.gov.au/fwo/IDN60701/IDN60701.95745.json